Decoded Metar for LEVC (VALENCIA in SPAIN) (IATA:VLC) | Meteo·Mobile Aviation Weather
aviador You're here:

LEVC Decoded Metar

VALENCIA in SPAIN
Report Time2019-03-23 16:00:00
UTC Time2019-03-23 16:25:10
Flight Rules vfr VFR
Wind090° at 07 kt
W.Decomp.*RWY 12: 6.1 kt HW 3.4 kt LCW
W.Rank090° ranks 8
Current wind is below 090° avg. (7.2)
Visibility9999 m
Phenomena:N/A
Clouds:N/A
Expected CloudBase > 4,800 ft AGL from Temp-Dew spread
CeilingNone
Temp18°C (ISA +3)
Dew Point06°C (46% RH)
AAT14.6°C
QNH1025 hPa
Density Alt328 ft
Elevation203 ft
Report Wrong Elevation
Raw Report
METAR LEVC 231600Z 09007KT 050V120 CAVOK 18/06 Q1025 NOSIG=

Extra information for LEVC:More info

Metar Taf Metar & Taf Last 4 Metars F.Rules Stats Wind Profile Meteogram Temp Stats Airport Information Weather charts Add Link Nearby VenuesMetar ALERT Operation Metar Decoded Social comments

Webcam Valencia